Terminal Aerodrome Forecast
Issued by NWS

Home | Current Version | Previous Version | Graphics & Text | Print | Product List | Glossary On
Versions: 1 2 3 4 5 6 7 8 9 10 11 12 13 14 15 16 17
000
FTUS42 KMHX 211700 RRA
TAFPGV
TAF
KPGV 211745Z 2118/2218 10005KT 4SM -RA SCT015 BKN025
     FM212200 11006KT P6SM VCSH SCT025 BKN050
     FM220000 10003KT P6SM SCT025 BKN080
     FM220800 VRB02KT 3SM BR SCT007 BKN150
     FM221200 08006KT P6SM SCT015 BKN035
      AMD LTD TO CLD VIS AND WIND=

USA.gov is the U.S. government's official web portal to all federal, state and local government web resources and services.